x

Bay Of Campeche - 214 Nm Ne Of Veracruz, Mx (42055) Wave Buoy

6:50pm - Sat 19th Apr 2014 All times are UTC.

  • Sig Wave height 4.3ft
  • Swell Direction
  • Peak Period 9s
  • Average Period 5s
  • Wind
    13mph, 18mph gusts
  • Sea Temp 78°f
  • Air Temp 76°f
  • Sea Pressure 1018.5mb

More Historic Weather Station data

Upgrade to MSW Pro to gain access to the past 30 days of data for over 8000 Wavebouys and Weather Stations around the globe.

Join Pro

Comparision Forecast

View Surf forecast
   
Sat 04/19 6:50pm 4.5ft 9s 5s 13 18 mph 1018.5mb 78f 76f
5:50pm 4.5ft 8s 5s 16 18 mph 1018.9mb 78f 76f
4:50pm 4.5ft 9s 5s 18 20 mph 1018.9mb 78f 76f
3:50pm 4.5ft 9s 5s 16 18 mph 1019.1mb 78f 76f
2:50pm 4.5ft 8s 5s 16 20 mph 1018.7mb 78f 76f
1:50pm 4.5ft 8s 5s 16 18 mph 1018.3mb 78f 76f
12:50pm 4.5ft 8s 6s 13 16 mph 1018.1mb 78f 75f
11:50am 5ft 8s 6s 13 16 mph 1017.6mb 78f 75f
10:50am 5ft 8s 6s 13 16 mph 1017.1mb 78f 75f
9:50am 4.5ft 8s 5s 13 16 mph 1016.7mb 78f 74f
8:50am 5ft 8s 6s 13 18 mph 1016.7mb 78f 74f
7:50am 4.5ft 8s 5s 16 18 mph 1017.2mb 78f 75f
6:50am 5ft 8s 5s 13 16 mph 1017.7mb 78f 75f
5:50am 5ft 8s 5s 16 18 mph 1018.1mb 78f 75f
4:50am 5ft 8s 5s 16 18 mph 1018.3mb 77f 75f
3:50am 5ft 8s 5s 16 20 mph 1018.1mb 77f 75f
2:50am 5.5ft 8s 5s 18 20 mph 1017.4mb 77f 75f
1:50am 5.5ft 9s 5s 20 22 mph 1016.5mb 77f 76f
12:50am 5.5ft 8s 6s 20 25 mph 1015.7mb 77f 75f
Fri 04/18 11:50pm 5.5ft 9s 6s 18 20 mph 1016.1mb 77f 74f
10:50pm 6ft 8s 6s 20 22 mph 1016mb 77f 74f
9:50pm 5.5ft 9s 6s 20 25 mph 1016.1mb 78f 75f
8:50pm 6.5ft 9s 6s 20 25 mph 1016.2mb 78f 75f
7:50pm 6ft 9s 6s 20 25 mph 1016.4mb 78f 76f
6:50pm 5.5ft 10s 6s 18 22 mph 1016.6mb 77f 76f
5:50pm 6ft 9s 6s 18 20 mph 1016.8mb 77f 76f
4:50pm 5ft 7s 6s 16 18 mph 1017.1mb 77f 76f
3:50pm 4.5ft 8s 6s 16 20 mph 1016.9mb 77f 76f
2:50pm 4.5ft 7s 5s 7 9 mph 1016.1mb 77f 77f
1:50pm 4.5ft 7s 5s 7
mph
1015.8mb 77f 77f
12:50pm 4.5ft 8s 5s 9 11 mph 1014.8mb 77f 77f
11:50am 5ft 8s 5s 9 11 mph 1014.5mb 77f 77f
10:50am 4.5ft 8s 5s 13 16 mph 1013.6mb 77f 77f
9:50am 4.5ft 7s 5s 16 18 mph 1013.1mb 77f 76f
8:50am 4.5ft 8s 5s 16 20 mph 1013.2mb 77f 76f
7:50am 4ft 8s 5s 18 22 mph 1013.3mb 78f 76f
6:50am 4.5ft 8s 5s 20 25 mph 1013.9mb 77f 76f
5:50am 4ft 8s 5s 18 20 mph 1014.1mb 78f 77f
4:50am 3.5ft 7s 5s 18 20 mph 1014.1mb 78f 77f
3:50am 3.5ft 8s 6s 13
mph
1013.7mb 78f 78f
2:50am 3.5ft 7s 6s 7
mph
1013.1mb 78f 78f
1:50am 3.5ft 7s 6s 7 9 mph 1012.3mb 78f 78f
12:50am 3.5ft 7s 6s 7 9 mph 1012mb 78f 78f
Thu 04/17 11:50pm 3.5ft 7s 6s 7
mph
1012mb 78f 78f
10:50pm 3.5ft 8s 6s 7
mph
1012.1mb 78f 78f
9:50pm 3.5ft 8s 6s 9
mph
1011.8mb 78f 78f
8:50pm 3.5ft 8s 5s 7 9 mph 1012.1mb 78f 78f
7:50pm 3.5ft 8s 6s 9
mph
1012.2mb 78f 78f
6:50pm 3.5ft 7s 6s 7 9 mph 1013mb 78f 78f
5:50pm 3.5ft 8s 6s 9
mph
1013.4mb 78f 78f
4:50pm 3.5ft 7s 5s 7
mph
1014mb 78f 77f
3:50pm 3.5ft 7s 5s 4 7 mph 1014.2mb 78f 77f
2:50pm 3.5ft 7s 6s 9 11 mph 1013.6mb 78f 77f
1:50pm 3.5ft 8s 6s 4
mph
1013.6mb 78f 76f
12:50pm 3.5ft 8s 6s 4 7 mph 1013.2mb 78f 76f
11:50am 3.5ft 8s 6s 7 9 mph 1012.7mb 78f 76f
10:50am 3.5ft 8s 5s 7
mph
1012.4mb 78f 76f
9:50am 4ft 8s 5s 7 9 mph 1012.5mb 78f 74f
8:50am 3.5ft 8s 5s 11 16 mph 1013.1mb 78f 76f
7:50am 4ft 9s 5s 9 11 mph 1013.6mb 78f 75f
6:50am 4.5ft 8s 5s 16 18 mph 1014mb 78f 75f
5:50am 4ft 8s 5s 13 16 mph 1014.6mb 78f 75f
4:50am 4ft 8s 5s 13 16 mph 1014.7mb 78f 75f
3:50am 4ft 8s 5s 16 18 mph 1014.7mb 78f 74f
2:50am 4.5ft 8s 5s 13 18 mph 1014.5mb 78f 74f
1:50am 4.5ft 8s 5s 16 18 mph 1013.9mb 78f 73f
12:50am 4.5ft 8s 6s 16 18 mph 1013.4mb 78f 73f
Wed 04/16 11:50pm 4.5ft 8s 6s 13 16 mph 1013.3mb 78f 73f
10:50pm 5ft 7s 6s 13 18 mph 1013.6mb 78f 73f
9:50pm 5ft 8s 6s 11 16 mph 1013.9mb 78f 73f
8:50pm 5ft 8s 6s 11 16 mph 1014.6mb 78f 73f
7:50pm 5ft 8s 6s 11 13 mph 1015.7mb 78f 73f
6:50pm 6ft 7s 6s 9 11 mph 1016.2mb 78f 72f
5:50pm 5.5ft 9s 6s 9 13 mph 1017.3mb 78f 72f
4:50pm 6ft 8s 6s 9 13 mph 1018.4mb 78f 72f
3:50pm 6ft 8s 6s 9 13 mph 1018.6mb 78f 71f
2:50pm 7ft 9s 7s 9 13 mph 1018.8mb 78f 70f
1:50pm 7.5ft 8s 7s 7 11 mph 1018.5mb 77f 70f
12:50pm 7.5ft 8s 7s 7 11 mph 1018.5mb 77f 70f
11:50am 8ft 10s 7s 11 16 mph 1017.9mb 77f 69f
10:50am 8ft 8s 7s 9 13 mph 1017.5mb 77f 69f
9:50am 9ft 9s 7s 11 16 mph 1017.7mb 78f 69f
8:50am 9ft 11s 7s 11 13 mph 1018.1mb 77f 69f
7:50am 8.5ft 11s 7s 11 16 mph 1018.8mb 78f 68f
6:50am 10ft 11s 7s 16 20 mph 1019mb 78f 69f
5:50am 10ft 10s 7s 16 22 mph 1019.8mb 78f 69f
4:50am 10ft 11s 7s 18 25 mph 1020mb 78f 69f
3:50am 11ft 9s 7s 20 25 mph 1020.1mb 78f 69f
2:50am 12ft 11s 8s 22 27 mph 1019.3mb 78f 69f
1:50am 13ft 11s 8s 22 29 mph 1018.8mb 77f 69f
12:50am 13ft 11s 8s 25 27 mph 1018.3mb 77f 69f
Tue 04/15 11:50pm 14ft 12s 8s 25 31 mph 1017.9mb 77f 69f
10:50pm 14.5ft 12s 8s 27 31 mph 1017.7mb 77f 69f
9:50pm 16ft 11s 8s 27 34 mph 1017.9mb 77f 69f
8:50pm 16.5ft 12s 8s 27 34 mph 1018.6mb 77f 70f